Terminal Aerodrome Forecast
Issued by NWS Paducah, KY

Home | Current Version | Previous Version | Text Only | Print | Product List | Glossary On
Versions: 1 2 3 4 5 6 7 8 9 10 11 12 13 14 15 16 17 18
000
FTUS43 KPAH 291600 AAB
TAFEVV
TAF AMD
KEVV 291604Z 2916/3012 31014G23KT P6SM BKN027 OVC035
     FM291800 30016G25KT P6SM OVC020
     FM300000 31011G16KT P6SM OVC025=

USA.gov is the U.S. government's official web portal to all federal, state and local government web resources and services.